CheckWX is a tool to help pilots better visualize weather data.  It is not intended as a substitute for an official pre-flight weather briefing.

12:27:11 UTC

KAVP METAR
Wilkes-Barre / Scranton International Airport
Wilkes-Barre/Scranton, Pennsylvania, USA
Current

18 mins ago

KAVP 181209Z 23003KT 2 1/2SM R04/6000VP6000FT BR SCT003 OVC012 00/M01 A2974 RMK AO2 T00001006
Observed
Feb-18 @ 12:09 UTC
Wind
  • 230° at 3 KTS
Visibility
2 1/2 SM
Flight Rules
IFR
Conditions
Mist
Cloud Levels
  • Scattered at 300' AGL
  • Overcast at 1,200' AGL
Temperature
C / 32°F
Dewpoint
-1°C / 30°F
Humidity
93%
Altimeter
29.74" Hg
Pressure
1007.12 hPa
Previous

33 mins ago

KAVP 181154Z 20004KT 4SM BR OVC011 00/M01 A2974 RMK AO2 SLP077 60001 70016 T00001006 10006 21006 51007
Observed
Feb-18 @ 11:54 UTC
Wind
  • 200° at 4 KTS
Visibility
4 SM
Flight Rules
MVFR
Conditions
Mist
Cloud Levels
  • Overcast at 1,100' AGL
Temperature
C / 32°F
Dewpoint
-1°C / 30°F
Humidity
93%
Altimeter
29.74" Hg
Pressure
1007.7 hPa
Previous

45 mins ago

KAVP 181142Z 22003KT 4SM BR OVC010 00/M01 A2974 RMK AO2 T00001006
Observed
Feb-18 @ 11:42 UTC
Wind
  • 220° at 3 KTS
Visibility
4 SM
Flight Rules
MVFR
Conditions
Mist
Cloud Levels
  • Overcast at 1,000' AGL
Temperature
C / 32°F
Dewpoint
-1°C / 30°F
Humidity
93%
Altimeter
29.74" Hg
Pressure
1007.12 hPa